»·PEaware :: ASA1961 KSAN-KSFO

ASA1961 :: KSAN-KSFO

FLIGHT INFORMATION

Flight Status: Arrived
Operator:
Alaska Airlines
More flights by this operator :: More flights under this callsign
Pilot: Patricio R. (14780)
Aircraft: AIRBUS A320
(A320)
More flights by this aircraft type
Origin: KSAN San Diego Intl-Lindbergh
United States
Destination: KSFO San Francisco Intl
United States
More flights between these airports :: More routes between these airports
Route: +PADRZ2 IKAYE RIZIN SPLNT STOKD SERFR SERFR3
File this flight plan on PilotEdge
Remarks:
Altitude:
(Current/Filed)
36,000ft
Speed:
(Current/Filed)
436kts
Departed: 27-Jul-18 10:42 AM
Arrived: 27-Jul-18 11:48 AM
Distance/Time
Traveled:
388nm/1:06
Distance/Time
To Go:
Arrived

Flight Plot

Page will automatically refresh every two minutes.

Flight plan parsing failed; only flown route is shown


Map Options




Map Legend


Flown Route
Filed Route
Departure Airport
Arrival Airport
Navaid (VOR, NDB)
Fix

Horizontal Profiles

Position Reports

Time Latitude Longitude Heading Altitude Ground
Speed
27-Jul-18 10:06 32.733414 -117.200772 264 20ft 0kts
27-Jul-18 10:07 32.733414 -117.200772 264 20ft 0kts
27-Jul-18 10:08 32.733414 -117.200772 264 20ft 0kts
27-Jul-18 10:09 32.733414 -117.200772 264 20ft 0kts
27-Jul-18 10:10 32.733414 -117.200772 264 20ft 0kts
27-Jul-18 10:11 32.733414 -117.200772 264 20ft 0kts
27-Jul-18 10:12 32.733414 -117.200772 264 20ft 0kts
27-Jul-18 10:13 32.733414 -117.200772 264 20ft 0kts
27-Jul-18 10:14 32.733414 -117.200772 264 20ft 0kts
27-Jul-18 10:15 32.733414 -117.200772 264 20ft 0kts
27-Jul-18 10:16 32.733414 -117.200772 264 20ft 0kts
27-Jul-18 10:17 32.733414 -117.200772 264 20ft 0kts
27-Jul-18 10:18 32.733414 -117.200772 264 20ft 0kts
27-Jul-18 10:19 32.733414 -117.200772 264 20ft 0kts
27-Jul-18 10:20 32.733414 -117.200772 264 20ft 0kts
27-Jul-18 10:21 32.733414 -117.200771 264 20ft 0kts
27-Jul-18 10:22 32.733414 -117.200771 264 20ft 0kts
27-Jul-18 10:23 32.733414 -117.200771 264 20ft 0kts
27-Jul-18 10:24 32.733414 -117.200771 264 20ft 0kts
27-Jul-18 10:25 32.733414 -117.200771 264 20ft 0kts
27-Jul-18 10:26 32.733414 -117.200771 264 20ft 0kts
27-Jul-18 10:27 32.733414 -117.200771 264 20ft 0kts
27-Jul-18 10:28 32.733414 -117.200771 264 20ft 0kts
27-Jul-18 10:29 32.733414 -117.200771 264 20ft 0kts
27-Jul-18 10:30 32.733442 -117.200457 264 21ft 2kts
27-Jul-18 10:31 32.733298 -117.199860 354 21ft 2kts
27-Jul-18 10:32 32.733172 -117.199880 12 21ft 0kts
27-Jul-18 10:33 32.733335 -117.199839 12 21ft 4kts
27-Jul-18 10:34 32.734332 -117.199578 14 21ft 0kts
27-Jul-18 10:35 32.734332 -117.199578 14 21ft 0kts
27-Jul-18 10:36 32.734332 -117.199578 14 21ft 0kts
27-Jul-18 10:37 32.734332 -117.199578 14 21ft 0kts
27-Jul-18 10:38 32.734428 -117.199546 17 21ft 6kts
27-Jul-18 10:39 32.734028 -117.195875 106 22ft 16kts
27-Jul-18 10:40 32.732546 -117.189770 105 22ft 21kts
27-Jul-18 10:41 32.730924 -117.183043 106 21ft 23kts
27-Jul-18 10:42 32.729488 -117.176840 85 25ft 17kts
27-Jul-18 10:43 32.735092 -117.196234 286 260ft 174kts
27-Jul-18 10:44 32.760457 -117.250174 305 3373ft 223kts
27-Jul-18 10:45 32.800828 -117.320778 307 6386ft 284kts
27-Jul-18 10:46 32.848662 -117.394482 306 10178ft 293kts
27-Jul-18 10:47 32.902807 -117.478447 306 12612ft 342kts
27-Jul-18 10:48 32.961406 -117.569706 305 15579ft 356kts
27-Jul-18 10:49 33.015532 -117.654222 305 17869ft 370kts
27-Jul-18 10:50 33.082371 -117.748489 317 20179ft 387kts
27-Jul-18 10:51 33.153321 -117.820537 317 21991ft 398kts
27-Jul-18 10:52 33.235153 -117.911081 312 23938ft 408kts
27-Jul-18 10:53 33.316478 -118.008122 312 25722ft 418kts
27-Jul-18 10:54 33.399196 -118.107107 311 27345ft 427kts
27-Jul-18 10:55 33.483688 -118.208514 311 28845ft 435kts
27-Jul-18 10:56 33.569502 -118.311811 311 30218ft 442kts
27-Jul-18 10:57 33.655771 -118.415982 311 31432ft 448kts
27-Jul-18 10:58 33.742307 -118.520772 310 32989ft 442kts
27-Jul-18 10:59 33.827490 -118.624245 310 34382ft 437kts
27-Jul-18 11:00 33.907413 -118.721605 310 35539ft 435kts
27-Jul-18 11:01 33.991659 -118.824528 310 36065ft 432kts
27-Jul-18 11:02 34.076048 -118.927945 309 36068ft 435kts
27-Jul-18 11:03 34.154298 -119.032009 297 36065ft 429kts
27-Jul-18 11:04 34.217177 -119.153945 297 36069ft 429kts
27-Jul-18 11:05 34.279711 -119.275573 297 36068ft 429kts
27-Jul-18 11:06 34.341997 -119.397140 297 36067ft 429kts
27-Jul-18 11:07 34.404577 -119.519027 300 36066ft 430kts
27-Jul-18 11:08 34.487219 -119.625935 310 36071ft 437kts
27-Jul-18 11:09 34.571628 -119.729992 309 36071ft 437kts
27-Jul-18 11:10 34.656355 -119.834715 309 36072ft 437kts
27-Jul-18 11:12 34.821041 -120.040105 309 36080ft 436kts
27-Jul-18 11:13 34.905687 -120.145327 309 36093ft 436kts
27-Jul-18 11:14 34.990219 -120.250814 309 36132ft 433kts
27-Jul-18 11:15 35.073660 -120.355278 308 36132ft 429kts
27-Jul-18 11:16 35.159912 -120.453632 311 36071ft 427kts
27-Jul-18 11:17 35.247204 -120.551605 311 36035ft 426kts
27-Jul-18 11:18 35.333942 -120.649230 311 36045ft 426kts
27-Jul-18 11:19 35.421174 -120.747706 311 36088ft 428kts
27-Jul-18 11:20 35.511037 -120.843726 317 36119ft 433kts
27-Jul-18 11:21 35.607027 -120.932783 317 36125ft 433kts
27-Jul-18 11:22 35.702763 -121.021907 316 36110ft 434kts
27-Jul-18 11:23 35.798832 -121.111595 316 36089ft 435kts
27-Jul-18 11:24 35.895743 -121.202369 316 35206ft 449kts
27-Jul-18 11:25 35.995672 -121.296185 316 32632ft 449kts
27-Jul-18 11:26 36.094649 -121.385170 322 30784ft 435kts
27-Jul-18 11:27 36.187103 -121.457259 322 29025ft 420kts
27-Jul-18 11:28 36.283544 -121.532725 323 27088ft 405kts
27-Jul-18 11:29 36.375747 -121.605063 323 25152ft 390kts
27-Jul-18 11:30 36.464198 -121.674650 323 23272ft 376kts
27-Jul-18 11:31 36.550334 -121.742637 323 21466ft 361kts
27-Jul-18 11:32 36.633131 -121.808182 324 19713ft 347kts
27-Jul-18 11:33 36.712616 -121.871261 324 18024ft 333kts
27-Jul-18 11:34 36.797735 -121.909826 344 16350ft 326kts
27-Jul-18 11:35 36.884169 -121.933998 345 14767ft 315kts
27-Jul-18 11:36 36.967637 -121.959183 340 13210ft 304kts
27-Jul-18 11:37 37.046803 -121.990095 340 11736ft 295kts
27-Jul-18 11:38 37.121453 -122.019237 340 10354ft 288kts
27-Jul-18 11:39 37.194552 -122.047844 340 9188ft 275kts
27-Jul-18 11:40 37.266258 -122.075953 340 8084ft 262kts
27-Jul-18 11:41 37.335548 -122.103235 340 6796ft 262kts
27-Jul-18 11:42 37.405029 -122.129403 343 5479ft 261kts
27-Jul-18 11:43 37.475300 -122.153272 343 3784ft 255kts
27-Jul-18 11:44 37.535871 -122.179190 307 3050ft 208kts
27-Jul-18 11:45 37.563559 -122.243591 297 1978ft 201kts
27-Jul-18 11:46 37.585494 -122.296014 297 1066ft 135kts
27-Jul-18 11:47 37.602327 -122.335976 298 411ft 128kts
27-Jul-18 11:48 37.618037 -122.373436 298 19ft 76kts
27-Jul-18 11:49 37.619557 -122.379451 229 34ft 0kts
27-Jul-18 11:50 37.618929 -122.379929 186 35ft 9kts
27-Jul-18 11:51 37.617870 -122.380579 258 35ft 2kts
27-Jul-18 11:52 37.617860 -122.380640 258 35ft 0kts

Navigation Log

Ident Type
Flight plan parsing failed, navigation log unavailable